• Join FlightAware (Why Join?)
  • Login
  • US Flag 
05:35PM EDT


 

Airport Tracker/Info


-or-


 

Live Flight TrackerFlight Track Log ✈ SKW5550 ✈ 02-Jul-2013 ✈ KCOD - KDEN

Flight Track Log - Related Links

Times and Time Zones

All times are in EDT time to prevent confusion due to time zone crossing. See the SKW5550 flight status page for this flight to view local times or setup timezone preferences in your user account.

Time Position Orientation Groundspeed Altitude Reporting Facility
EDT Latitude Longitude Course Direction KTS MPH feet Rate Location/Type
09:09AM 44.4217 -108.8486 157° South 291 335 13,000  Level Salt Lake Center
09:10AM 44.0876 -108.6492 159° South  Level FlightAware Approximate
09:10AM 44.3297 -108.7972 158° South 317 365 14,800  Level Salt Lake Center
09:11AM 43.9738 -108.5872 159° South  Level FlightAware Approximate
09:11AM 44.2492 -108.7475 156° South 323 372 16,500  Level Salt Lake Center
09:12AM 43.8610 -108.5216 157° South  Level FlightAware Approximate
09:12AM 44.1650 -108.6972 157° South 330 380 17,900  Level Salt Lake Center
09:13AM 43.7483 -108.4561 157° South  Level FlightAware Approximate
09:13AM 44.0608 -108.6358 157° South 341 392 18,600  Level Salt Lake Center
09:14AM 43.6353 -108.3915 157° South  Level FlightAware Approximate
09:14AM 43.9653 -108.5803 157° South 361 415 19,500  Level Salt Lake Center
09:15AM 43.8639 -108.5286 160° South 387 445 21,200 1,260 Climbing Salt Lake Center
09:16AM 43.7506 -108.4628 157° South 395 455 22,100 840 Climbing Salt Lake Center
09:17AM 43.6422 -108.4028 158° South 406 467 23,000 900 Climbing Salt Lake Center
09:18AM 43.5406 -108.3453 158° South 412 474 24,000 960 Climbing Salt Lake Center
09:19AM 43.4425 -108.2808 154° Southeast 410 472 25,000 900 Climbing Salt Lake Center
09:20AM 43.3417 -108.1708 142° Southeast 413 475 25,900 780 Climbing Salt Lake Center
09:21AM 43.2531 -108.0778 143° Southeast 417 480 26,600 660 Climbing Salt Lake Center
09:22AM 43.1606 -107.9797 142° Southeast 431 496 27,300 720 Climbing Salt Lake Center
09:23AM 43.0522 -107.8672 143° Southeast 436 502 28,100 660 Climbing Salt Lake Center
09:24AM 42.9600 -107.7692 142° Southeast 439 505 28,700 600 Climbing Salt Lake Center
09:25AM 42.8653 -107.6706 143° Southeast 443 510 29,400 720 Climbing Salt Lake Center
09:26AM 42.7569 -107.5572 142° Southeast 441 507 30,200 660 Climbing Salt Lake Center
09:27AM 42.6633 -107.4611 143° Southeast 440 506 30,800 360 Climbing Salt Lake Center
09:28AM 42.5542 -107.3475 143° Southeast 441 507 31,000 60 Climbing Salt Lake Center
09:29AM 42.4572 -107.2475 143° Southeast 450 518 31,000  Level Salt Lake Center
09:30AM 42.3603 -107.1492 143° Southeast 454 522 31,000  Level Salt Lake Center
09:31AM 42.2181 -107.0036 143° Southeast 443 510 31,000  Level Denver Center
09:32AM 42.1250 -106.9053 142° Southeast 443 510 31,000  Level Denver Center
09:33AM 42.0139 -106.7889 142° Southeast 449 517 31,000  Level Denver Center
09:34AM 41.9183 -106.6892 142° Southeast 453 521 31,000  Level Denver Center
09:35AM 41.8064 -106.5722 142° Southeast 456 525 31,000  Level Denver Center
09:36AM 41.7083 -106.4697 142° Southeast 460 529 31,000  Level Denver Center
09:37AM 41.6117 -106.3700 142° Southeast 461 531 31,000  Level Denver Center
09:39AM 41.4989 -106.2533 142° Southeast 460 529 31,000  Level Denver Center
09:40AM 41.4006 -106.1536 143° Southeast 464 534 31,000  Level Denver Center
09:41AM 41.3031 -106.0542 143° Southeast 463 533 31,000  Level Denver Center
09:42AM 41.1881 -105.9378 143° Southeast 465 535 31,000  Level Denver Center
09:43AM 41.0908 -105.8389 143° Southeast 463 533 31,000 -300 Level Denver Center
09:44AM 40.9817 -105.7281 143° Southeast 458 527 30,500 -1,260 Descending Denver Center
09:45AM 40.8850 -105.6294 142° Southeast 444 511 28,500 -1,920 Descending Denver Center
09:46AM 40.7914 -105.5350 143° Southeast 428 493 26,600 -1,740 Descending Denver Center
09:47AM 40.7189 -105.4636 143° Southeast 413 475 25,000 -1,860 Descending Denver Center
09:48AM 40.6125 -105.3589 143° Southeast 400 460 22,800 -1,680 Descending Denver Center
09:49AM 40.5264 -105.2753 144° Southeast 388 447 21,600 -1,380 Descending Denver Center
09:50AM 40.4264 -105.1817 145° Southeast 397 457 20,000 -1,860 Descending Denver Center
09:51AM 40.3350 -105.1114 150° Southeast 383 441 17,800 -1,980 Descending Denver Center
09:52AM 40.2417 -105.0369 149° Southeast 366 421 16,000 -1,380 Descending Denver Center
09:53AM 40.1597 -104.9722 149° Southeast 346 398 15,100 -960 Descending Denver Center
09:54AM 40.0817 -104.9092 148° Southeast 333 383 14,100 -960 Descending Denver Center
09:55AM 40.0022 -104.8450 148° Southeast 328 377 13,200 -1,080 Descending Denver Center
09:56AM 39.9147 -104.8075 162° South 319 367 12,000 -1,020 Descending Denver Center
09:57AM 39.8289 -104.8086 181° South 310 357 11,000 -600 Descending Denver Center
09:58AM 39.7358 -104.8100 181° South 269 310 10,700 -540 Descending Denver Center
09:59AM 39.7078 -104.7442 119° Southeast 211 243 9,800 -780 Descending Denver Center